sensor_id;sensor_type;location;lat;lon;timestamp;pressure;altitude;pressure_sealevel;temperature;humidity
39487;BME280;25173;50.430;18.926;2023-07-20T00:02:30;97424.69;;;23.02;44.24
39487;BME280;25173;50.430;18.926;2023-07-20T00:05:31;97431.50;;;23.08;44.38
39487;BME280;25173;50.430;18.926;2023-07-20T00:08:32;97436.63;;;23.06;44.29
39487;BME280;25173;50.430;18.926;2023-07-20T00:11:35;97442.63;;;23.08;44.87
39487;BME280;25173;50.430;18.926;2023-07-20T00:14:36;97454.44;;;23.01;44.65
39487;BME280;25173;50.430;18.926;2023-07-20T00:17:37;97480.22;;;23.02;44.63
39487;BME280;25173;50.430;18.926;2023-07-20T00:20:40;97527.56;;;22.86;45.15
39487;BME280;25173;50.430;18.926;2023-07-20T00:23:40;97546.09;;;22.59;45.95
39487;BME280;25173;50.430;18.926;2023-07-20T00:26:41;97530.78;;;22.27;47.44
39487;BME280;25173;50.430;18.926;2023-07-20T00:29:41;97557.97;;;21.83;53.32
39487;BME280;25173;50.430;18.926;2023-07-20T00:32:43;97577.50;;;20.48;58.49
39487;BME280;25173;50.430;18.926;2023-07-20T00:35:44;97574.75;;;19.56;62.30
39487;BME280;25173;50.430;18.926;2023-07-20T00:38:48;97561.84;;;18.99;63.74
39487;BME280;25173;50.430;18.926;2023-07-20T00:41:50;97572.47;;;18.65;72.15
39487;BME280;25173;50.430;18.926;2023-07-20T00:45:00;97568.19;;;18.34;66.45
39487;BME280;25173;50.430;18.926;2023-07-20T00:48:09;97567.91;;;18.15;68.29
39487;BME280;25173;50.430;18.926;2023-07-20T00:51:12;97565.66;;;18.08;67.69
39487;BME280;25173;50.430;18.926;2023-07-20T00:54:23;97551.44;;;18.06;68.57
39487;BME280;25173;50.430;18.926;2023-07-20T00:57:29;97546.59;;;18.03;69.41
39487;BME280;25173;50.430;18.926;2023-07-20T01:00:33;97535.81;;;18.10;73.85
39487;BME280;25173;50.430;18.926;2023-07-20T01:03:54;97531.13;;;18.11;68.12
39487;BME280;25173;50.430;18.926;2023-07-20T01:07:14;97543.91;;;18.15;69.98
39487;BME280;25173;50.430;18.926;2023-07-20T01:10:32;97534.28;;;18.21;68.55
39487;BME280;25173;50.430;18.926;2023-07-20T01:13:57;97522.38;;;18.30;67.95
39487;BME280;25173;50.430;18.926;2023-07-20T01:16:58;97517.09;;;18.37;67.23
39487;BME280;25173;50.430;18.926;2023-07-20T01:20:13;97500.81;;;18.44;67.46
39487;BME280;25173;50.430;18.926;2023-07-20T01:30:03;97512.78;;;18.60;67.26
39487;BME280;25173;50.430;18.926;2023-07-20T01:33:18;97523.38;;;18.58;66.17
39487;BME280;25173;50.430;18.926;2023-07-20T01:36:22;97523.06;;;18.59;66.01
39487;BME280;25173;50.430;18.926;2023-07-20T01:39:23;97526.16;;;18.58;66.96
39487;BME280;25173;50.430;18.926;2023-07-20T01:42:24;97526.59;;;18.60;67.52
39487;BME280;25173;50.430;18.926;2023-07-20T01:45:25;97518.59;;;18.67;67.10
39487;BME280;25173;50.430;18.926;2023-07-20T01:48:27;97532.16;;;18.72;67.26
39487;BME280;25173;50.430;18.926;2023-07-20T01:51:27;97544.31;;;18.71;67.26
39487;BME280;25173;50.430;18.926;2023-07-20T01:54:28;97545.59;;;18.74;66.85
39487;BME280;25173;50.430;18.926;2023-07-20T01:57:28;97553.31;;;18.80;65.72
39487;BME280;25173;50.430;18.926;2023-07-20T02:00:29;97548.94;;;18.79;66.27
39487;BME280;25173;50.430;18.926;2023-07-20T02:03:30;97557.69;;;18.81;66.20
39487;BME280;25173;50.430;18.926;2023-07-20T02:06:31;97562.84;;;18.83;65.76
39487;BME280;25173;50.430;18.926;2023-07-20T02:09:31;97573.06;;;18.82;65.91
39487;BME280;25173;50.430;18.926;2023-07-20T02:12:32;97563.66;;;18.83;65.22
39487;BME280;25173;50.430;18.926;2023-07-20T02:15:33;97562.16;;;18.86;65.13
39487;BME280;25173;50.430;18.926;2023-07-20T02:18:33;97571.25;;;18.86;65.02
39487;BME280;25173;50.430;18.926;2023-07-20T02:21:34;97562.50;;;18.84;64.60
39487;BME280;25173;50.430;18.926;2023-07-20T02:24:35;97557.22;;;18.79;64.54
39487;BME280;25173;50.430;18.926;2023-07-20T02:27:36;97569.38;;;18.78;64.74
39487;BME280;25173;50.430;18.926;2023-07-20T02:30:38;97589.84;;;18.77;64.61
39487;BME280;25173;50.430;18.926;2023-07-20T02:33:39;97588.47;;;18.71;64.58
39487;BME280;25173;50.430;18.926;2023-07-20T02:36:40;97586.25;;;18.65;64.54
39487;BME280;25173;50.430;18.926;2023-07-20T02:39:48;97582.56;;;18.60;65.23
39487;BME280;25173;50.430;18.926;2023-07-20T02:42:58;97588.59;;;18.54;65.67
39487;BME280;25173;50.430;18.926;2023-07-20T02:45:59;97583.78;;;18.51;65.63
39487;BME280;25173;50.430;18.926;2023-07-20T02:48:59;97590.78;;;18.48;65.74
39487;BME280;25173;50.430;18.926;2023-07-20T02:52:00;97586.63;;;18.42;66.36
39487;BME280;25173;50.430;18.926;2023-07-20T02:55:01;97580.50;;;18.37;66.74
39487;BME280;25173;50.430;18.926;2023-07-20T02:58:01;97601.88;;;18.40;66.53
39487;BME280;25173;50.430;18.926;2023-07-20T03:01:02;97599.34;;;18.35;66.90
39487;BME280;25173;50.430;18.926;2023-07-20T03:04:03;97612.97;;;18.31;67.35
39487;BME280;25173;50.430;18.926;2023-07-20T03:07:05;97612.16;;;18.31;67.21
39487;BME280;25173;50.430;18.926;2023-07-20T03:10:06;97610.91;;;18.28;67.62
39487;BME280;25173;50.430;18.926;2023-07-20T03:13:09;97619.03;;;18.24;68.00
39487;BME280;25173;50.430;18.926;2023-07-20T03:16:12;97614.00;;;18.27;67.62
39487;BME280;25173;50.430;18.926;2023-07-20T03:19:13;97618.22;;;18.24;67.98
39487;BME280;25173;50.430;18.926;2023-07-20T03:22:13;97615.84;;;18.22;68.34
39487;BME280;25173;50.430;18.926;2023-07-20T03:25:14;97617.78;;;18.22;68.54
39487;BME280;25173;50.430;18.926;2023-07-20T03:28:14;97633.03;;;18.19;69.28
39487;BME280;25173;50.430;18.926;2023-07-20T03:31:15;97641.63;;;18.18;69.00
39487;BME280;25173;50.430;18.926;2023-07-20T03:34:16;97626.59;;;18.15;69.28
39487;BME280;25173;50.430;18.926;2023-07-20T03:37:17;97631.75;;;18.17;68.93
39487;BME280;25173;50.430;18.926;2023-07-20T03:40:18;97657.84;;;18.19;69.00
39487;BME280;25173;50.430;18.926;2023-07-20T03:43:19;97662.22;;;18.20;69.22
39487;BME280;25173;50.430;18.926;2023-07-20T03:46:20;97644.88;;;18.20;69.06
39487;BME280;25173;50.430;18.926;2023-07-20T03:49:20;97614.16;;;18.30;68.24
39487;BME280;25173;50.430;18.926;2023-07-20T03:52:21;97641.16;;;18.37;69.28
39487;BME280;25173;50.430;18.926;2023-07-20T03:55:31;97656.81;;;18.24;69.50
39487;BME280;25173;50.430;18.926;2023-07-20T03:58:31;97676.44;;;18.02;70.68
39487;BME280;25173;50.430;18.926;2023-07-20T04:01:32;97629.91;;;17.79;71.57
39487;BME280;25173;50.430;18.926;2023-07-20T04:04:37;97629.50;;;17.69;72.31
39487;BME280;25173;50.430;18.926;2023-07-20T04:07:38;97624.00;;;17.60;72.91
39487;BME280;25173;50.430;18.926;2023-07-20T04:10:39;97617.19;;;17.66;73.23
39487;BME280;25173;50.430;18.926;2023-07-20T04:13:39;97620.84;;;17.79;73.58
39487;BME280;25173;50.430;18.926;2023-07-20T04:16:40;97627.53;;;17.99;73.93
39487;BME280;25173;50.430;18.926;2023-07-20T04:19:41;97648.97;;;18.14;73.47
39487;BME280;25173;50.430;18.926;2023-07-20T04:22:41;97642.06;;;18.08;73.32
39487;BME280;25173;50.430;18.926;2023-07-20T04:25:45;97644.88;;;17.99;73.57
39487;BME280;25173;50.430;18.926;2023-07-20T04:28:47;97653.50;;;17.89;74.05
39487;BME280;25173;50.430;18.926;2023-07-20T04:31:58;97652.22;;;17.87;73.80
39487;BME280;25173;50.430;18.926;2023-07-20T04:34:59;97639.09;;;17.92;73.85
39487;BME280;25173;50.430;18.926;2023-07-20T04:38:00;97636.53;;;18.08;74.12
39487;BME280;25173;50.430;18.926;2023-07-20T04:41:00;97651.94;;;18.30;74.12
39487;BME280;25173;50.430;18.926;2023-07-20T04:44:03;97637.97;;;18.47;74.08
39487;BME280;25173;50.430;18.926;2023-07-20T04:47:05;97632.69;;;18.63;73.63
39487;BME280;25173;50.430;18.926;2023-07-20T04:50:09;97645.59;;;18.71;72.79
39487;BME280;25173;50.430;18.926;2023-07-20T04:53:11;97643.16;;;18.69;72.71
39487;BME280;25173;50.430;18.926;2023-07-20T04:56:12;97635.13;;;18.76;72.59
39487;BME280;25173;50.430;18.926;2023-07-20T04:59:13;97625.28;;;18.87;72.44
39487;BME280;25173;50.430;18.926;2023-07-20T05:02:14;97632.19;;;18.93;72.28
39487;BME280;25173;50.430;18.926;2023-07-20T05:05:15;97636.00;;;19.01;72.48
39487;BME280;25173;50.430;18.926;2023-07-20T05:08:16;97651.34;;;19.11;72.20
39487;BME280;25173;50.430;18.926;2023-07-20T05:11:17;97654.78;;;19.20;72.33
39487;BME280;25173;50.430;18.926;2023-07-20T05:14:18;97660.59;;;19.39;72.17
39487;BME280;25173;50.430;18.926;2023-07-20T05:17:19;97665.22;;;19.59;71.97
39487;BME280;25173;50.430;18.926;2023-07-20T05:20:20;97665.44;;;19.78;72.08
39487;BME280;25173;50.430;18.926;2023-07-20T05:23:21;97670.38;;;19.97;71.62
39487;BME280;25173;50.430;18.926;2023-07-20T05:26:22;97680.16;;;20.19;71.41
39487;BME280;25173;50.430;18.926;2023-07-20T05:29:23;97676.91;;;20.41;71.01
39487;BME280;25173;50.430;18.926;2023-07-20T05:32:23;97687.56;;;20.55;70.87
39487;BME280;25173;50.430;18.926;2023-07-20T05:35:26;97680.75;;;20.65;69.80
39487;BME280;25173;50.430;18.926;2023-07-20T05:38:30;97685.13;;;20.66;69.16
39487;BME280;25173;50.430;18.926;2023-07-20T05:41:31;97685.56;;;20.68;68.64
39487;BME280;25173;50.430;18.926;2023-07-20T05:44:32;97687.78;;;20.62;68.30
39487;BME280;25173;50.430;18.926;2023-07-20T05:47:32;97676.16;;;20.57;68.61
39487;BME280;25173;50.430;18.926;2023-07-20T05:50:33;97674.75;;;20.63;68.55
39487;BME280;25173;50.430;18.926;2023-07-20T05:53:35;97681.63;;;20.69;68.44
39487;BME280;25173;50.430;18.926;2023-07-20T05:56:36;97699.63;;;20.75;68.97
39487;BME280;25173;50.430;18.926;2023-07-20T05:59:36;97705.00;;;20.83;68.43
39487;BME280;25173;50.430;18.926;2023-07-20T06:02:39;97705.31;;;20.94;68.76
39487;BME280;25173;50.430;18.926;2023-07-20T06:05:40;97703.88;;;21.00;68.39
39487;BME280;25173;50.430;18.926;2023-07-20T06:08:40;97712.75;;;21.06;68.78
39487;BME280;25173;50.430;18.926;2023-07-20T06:11:41;97700.56;;;21.22;68.56
39487;BME280;25173;50.430;18.926;2023-07-20T06:14:41;97712.75;;;21.34;68.25
39487;BME280;25173;50.430;18.926;2023-07-20T06:17:42;97712.50;;;21.39;67.71
39487;BME280;25173;50.430;18.926;2023-07-20T06:20:48;97707.75;;;21.55;67.56
39487;BME280;25173;50.430;18.926;2023-07-20T06:23:49;97713.22;;;21.67;67.32
39487;BME280;25173;50.430;18.926;2023-07-20T06:26:49;97713.91;;;21.80;66.90
39487;BME280;25173;50.430;18.926;2023-07-20T06:29:50;97713.66;;;21.85;66.66
39487;BME280;25173;50.430;18.926;2023-07-20T06:32:51;97708.66;;;21.90;66.19
39487;BME280;25173;50.430;18.926;2023-07-20T06:35:51;97715.88;;;21.95;66.23
39487;BME280;25173;50.430;18.926;2023-07-20T06:38:53;97713.09;;;21.95;66.16
39487;BME280;25173;50.430;18.926;2023-07-20T06:41:53;97728.41;;;21.89;66.29
39487;BME280;25173;50.430;18.926;2023-07-20T06:44:54;97723.38;;;21.79;65.72
39487;BME280;25173;50.430;18.926;2023-07-20T06:47:54;97726.78;;;21.72;66.02
39487;BME280;25173;50.430;18.926;2023-07-20T06:50:55;97732.78;;;21.74;66.44
39487;BME280;25173;50.430;18.926;2023-07-20T06:53:56;97730.38;;;21.73;65.99
39487;BME280;25173;50.430;18.926;2023-07-20T06:56:56;97728.69;;;21.68;65.82
39487;BME280;25173;50.430;18.926;2023-07-20T06:59:57;97723.13;;;21.68;65.60
39487;BME280;25173;50.430;18.926;2023-07-20T07:02:57;97726.19;;;21.63;65.39
39487;BME280;25173;50.430;18.926;2023-07-20T07:05:58;97721.69;;;21.43;65.84
39487;BME280;25173;50.430;18.926;2023-07-20T07:08:58;97729.56;;;21.41;65.17
39487;BME280;25173;50.430;18.926;2023-07-20T07:11:59;97723.28;;;21.44;65.74
39487;BME280;25173;50.430;18.926;2023-07-20T07:15:00;97741.22;;;21.62;64.45
39487;BME280;25173;50.430;18.926;2023-07-20T07:18:00;97726.09;;;21.59;63.56
39487;BME280;25173;50.430;18.926;2023-07-20T07:21:01;97722.34;;;21.67;62.72
39487;BME280;25173;50.430;18.926;2023-07-20T07:24:01;97731.63;;;21.59;62.45
39487;BME280;25173;50.430;18.926;2023-07-20T07:27:02;97734.03;;;21.61;63.24
39487;BME280;25173;50.430;18.926;2023-07-20T07:30:04;97734.22;;;21.68;63.02
39487;BME280;25173;50.430;18.926;2023-07-20T07:33:05;97742.28;;;21.73;62.76
39487;BME280;25173;50.430;18.926;2023-07-20T07:36:06;97731.91;;;21.86;63.00
39487;BME280;25173;50.430;18.926;2023-07-20T07:39:06;97729.59;;;22.03;63.61
39487;BME280;25173;50.430;18.926;2023-07-20T07:42:07;97744.41;;;22.27;62.39
39487;BME280;25173;50.430;18.926;2023-07-20T07:45:08;97744.41;;;22.27;61.44
39487;BME280;25173;50.430;18.926;2023-07-20T07:48:09;97742.72;;;22.22;61.73
39487;BME280;25173;50.430;18.926;2023-07-20T07:51:11;97750.25;;;22.22;61.59
39487;BME280;25173;50.430;18.926;2023-07-20T07:54:13;97739.03;;;22.34;61.84
39487;BME280;25173;50.430;18.926;2023-07-20T07:57:14;97745.63;;;22.45;60.80
39487;BME280;25173;50.430;18.926;2023-07-20T08:00:15;97743.03;;;22.52;61.61
39487;BME280;25173;50.430;18.926;2023-07-20T08:03:19;97745.47;;;22.73;61.20
39487;BME280;25173;50.430;18.926;2023-07-20T08:06:19;97750.69;;;22.74;60.59
39487;BME280;25173;50.430;18.926;2023-07-20T08:09:20;97754.41;;;22.82;60.49
39487;BME280;25173;50.430;18.926;2023-07-20T08:12:20;97761.22;;;22.69;59.70
39487;BME280;25173;50.430;18.926;2023-07-20T08:15:21;97751.88;;;22.58;60.75
39487;BME280;25173;50.430;18.926;2023-07-20T08:18:22;97769.03;;;22.63;60.13
39487;BME280;25173;50.430;18.926;2023-07-20T08:21:22;97764.13;;;22.57;60.31
39487;BME280;25173;50.430;18.926;2023-07-20T08:24:23;97766.28;;;22.48;60.17
39487;BME280;25173;50.430;18.926;2023-07-20T08:27:24;97751.41;;;22.56;60.72
39487;BME280;25173;50.430;18.926;2023-07-20T08:30:25;97760.59;;;22.75;59.59
39487;BME280;25173;50.430;18.926;2023-07-20T08:33:26;97755.31;;;22.70;59.42
39487;BME280;25173;50.430;18.926;2023-07-20T08:36:31;97752.66;;;22.93;59.68
39487;BME280;25173;50.430;18.926;2023-07-20T08:39:32;97753.44;;;23.13;59.40
39487;BME280;25173;50.430;18.926;2023-07-20T08:42:36;97758.69;;;23.37;59.54
39487;BME280;25173;50.430;18.926;2023-07-20T08:45:39;97760.69;;;23.56;58.68
39487;BME280;25173;50.430;18.926;2023-07-20T08:48:41;97771.13;;;23.63;57.96
39487;BME280;25173;50.430;18.926;2023-07-20T08:51:43;97778.31;;;23.64;57.84
39487;BME280;25173;50.430;18.926;2023-07-20T08:54:43;97766.56;;;23.74;57.15
39487;BME280;25173;50.430;18.926;2023-07-20T08:57:46;97765.28;;;23.90;57.21
39487;BME280;25173;50.430;18.926;2023-07-20T09:00:47;97761.34;;;24.18;56.36
39487;BME280;25173;50.430;18.926;2023-07-20T09:03:50;97765.84;;;24.49;56.25
39487;BME280;25173;50.430;18.926;2023-07-20T09:06:51;97764.69;;;24.80;55.52
39487;BME280;25173;50.430;18.926;2023-07-20T09:09:52;97768.94;;;24.96;54.26
39487;BME280;25173;50.430;18.926;2023-07-20T09:12:52;97771.38;;;24.75;54.30
39487;BME280;25173;50.430;18.926;2023-07-20T09:15:53;97775.19;;;24.63;54.22
39487;BME280;25173;50.430;18.926;2023-07-20T09:18:57;97781.94;;;24.36;54.21
39487;BME280;25173;50.430;18.926;2023-07-20T09:21:58;97787.53;;;23.90;54.81
39487;BME280;25173;50.430;18.926;2023-07-20T09:24:59;97790.81;;;23.54;55.26
39487;BME280;25173;50.430;18.926;2023-07-20T09:28:02;97789.50;;;23.29;56.11
39487;BME280;25173;50.430;18.926;2023-07-20T09:31:15;97796.47;;;23.19;56.96
39487;BME280;25173;50.430;18.926;2023-07-20T09:34:17;97793.28;;;23.20;56.60
39487;BME280;25173;50.430;18.926;2023-07-20T09:37:23;97787.59;;;23.33;56.29
39487;BME280;25173;50.430;18.926;2023-07-20T09:40:25;97788.16;;;23.42;55.46
39487;BME280;25173;50.430;18.926;2023-07-20T09:43:28;97793.72;;;23.42;55.71
39487;BME280;25173;50.430;18.926;2023-07-20T09:46:41;97793.06;;;23.68;55.78
39487;BME280;25173;50.430;18.926;2023-07-20T09:49:42;97793.69;;;23.80;55.08
39487;BME280;25173;50.430;18.926;2023-07-20T09:52:42;97807.06;;;23.71;54.40
39487;BME280;25173;50.430;18.926;2023-07-20T09:55:49;97797.03;;;23.47;53.67
39487;BME280;25173;50.430;18.926;2023-07-20T09:58:50;97799.22;;;23.38;53.81
39487;BME280;25173;50.430;18.926;2023-07-20T10:01:53;97782.41;;;23.50;54.54
39487;BME280;25173;50.430;18.926;2023-07-20T10:04:56;97792.63;;;23.66;52.69
39487;BME280;25173;50.430;18.926;2023-07-20T10:08:00;97780.91;;;23.76;54.24
39487;BME280;25173;50.430;18.926;2023-07-20T10:11:02;97787.88;;;24.12;53.47
39487;BME280;25173;50.430;18.926;2023-07-20T10:14:04;97784.78;;;24.17;52.45
39487;BME280;25173;50.430;18.926;2023-07-20T10:17:13;97783.97;;;24.16;53.20
39487;BME280;25173;50.430;18.926;2023-07-20T10:20:14;97785.81;;;24.28;52.47
39487;BME280;25173;50.430;18.926;2023-07-20T10:23:16;97783.25;;;24.19;52.11
39487;BME280;25173;50.430;18.926;2023-07-20T10:26:16;97780.66;;;24.07;51.67
39487;BME280;25173;50.430;18.926;2023-07-20T10:29:17;97776.06;;;24.18;52.25
39487;BME280;25173;50.430;18.926;2023-07-20T10:32:19;97780.81;;;24.41;50.95
39487;BME280;25173;50.430;18.926;2023-07-20T10:35:20;97774.91;;;24.46;51.37
39487;BME280;25173;50.430;18.926;2023-07-20T10:38:52;97775.66;;;24.69;49.71
39487;BME280;25173;50.430;18.926;2023-07-20T10:42:09;97764.59;;;24.72;49.03
39487;BME280;25173;50.430;18.926;2023-07-20T10:45:09;97753.25;;;24.88;49.90
39487;BME280;25173;50.430;18.926;2023-07-20T10:48:20;97757.34;;;24.94;49.38
39487;BME280;25173;50.430;18.926;2023-07-20T10:51:21;97759.06;;;25.06;48.97
39487;BME280;25173;50.430;18.926;2023-07-20T10:54:33;97756.06;;;25.18;48.17
39487;BME280;25173;50.430;18.926;2023-07-20T10:57:34;97752.88;;;25.20;48.60
39487;BME280;25173;50.430;18.926;2023-07-20T11:00:35;97754.56;;;25.28;48.84
39487;BME280;25173;50.430;18.926;2023-07-20T11:03:39;97746.19;;;25.28;48.66
39487;BME280;25173;50.430;18.926;2023-07-20T11:06:44;97745.81;;;25.26;47.49
39487;BME280;25173;50.430;18.926;2023-07-20T11:09:44;97746.19;;;25.28;47.96
39487;BME280;25173;50.430;18.926;2023-07-20T11:13:18;97753.50;;;25.39;46.82
39487;BME280;25173;50.430;18.926;2023-07-20T11:16:19;97745.97;;;25.40;46.92
39487;BME280;25173;50.430;18.926;2023-07-20T11:19:31;97752.72;;;25.39;47.95
39487;BME280;25173;50.430;18.926;2023-07-20T11:22:33;97748.31;;;25.38;48.02
39487;BME280;25173;50.430;18.926;2023-07-20T11:25:40;97738.34;;;25.37;45.80
39487;BME280;25173;50.430;18.926;2023-07-20T11:28:41;97738.41;;;25.44;45.90
39487;BME280;25173;50.430;18.926;2023-07-20T11:31:43;97738.09;;;25.49;45.92
39487;BME280;25173;50.430;18.926;2023-07-20T11:34:47;97748.03;;;25.50;46.39
39487;BME280;25173;50.430;18.926;2023-07-20T11:37:47;97741.13;;;25.70;47.00
39487;BME280;25173;50.430;18.926;2023-07-20T11:40:48;97746.22;;;26.05;46.28
39487;BME280;25173;50.430;18.926;2023-07-20T11:43:49;97745.28;;;26.35;44.90
39487;BME280;25173;50.430;18.926;2023-07-20T11:46:49;97736.56;;;26.43;44.04
39487;BME280;25173;50.430;18.926;2023-07-20T11:49:51;97734.19;;;26.45;44.21
39487;BME280;25173;50.430;18.926;2023-07-20T11:52:54;97727.88;;;26.59;44.04
39487;BME280;25173;50.430;18.926;2023-07-20T11:55:55;97734.75;;;26.76;44.23
39487;BME280;25173;50.430;18.926;2023-07-20T11:58:58;97737.50;;;26.65;43.80
39487;BME280;25173;50.430;18.926;2023-07-20T12:02:03;97754.16;;;26.54;43.88
39487;BME280;25173;50.430;18.926;2023-07-20T12:05:04;97765.63;;;26.35;44.04
39487;BME280;25173;50.430;18.926;2023-07-20T12:08:05;97736.31;;;26.15;44.06
39487;BME280;25173;50.430;18.926;2023-07-20T12:11:06;97745.28;;;26.35;45.12
39487;BME280;25173;50.430;18.926;2023-07-20T12:14:07;97725.94;;;26.66;44.40
39487;BME280;25173;50.430;18.926;2023-07-20T12:17:08;97720.91;;;26.93;43.84
39487;BME280;25173;50.430;18.926;2023-07-20T12:20:10;97723.69;;;26.90;43.68
39487;BME280;25173;50.430;18.926;2023-07-20T12:23:12;97727.84;;;26.55;43.26
39487;BME280;25173;50.430;18.926;2023-07-20T12:26:14;97720.53;;;26.33;43.63
39487;BME280;25173;50.430;18.926;2023-07-20T12:29:15;97718.09;;;26.28;43.91
39487;BME280;25173;50.430;18.926;2023-07-20T12:32:16;97711.97;;;26.70;43.98
39487;BME280;25173;50.430;18.926;2023-07-20T12:35:17;97715.81;;;27.34;43.40
39487;BME280;25173;50.430;18.926;2023-07-20T12:38:17;97709.56;;;27.76;43.51
39487;BME280;25173;50.430;18.926;2023-07-20T12:41:18;97705.94;;;27.94;42.55
39487;BME280;25173;50.430;18.926;2023-07-20T12:44:19;97712.34;;;28.01;41.10
39487;BME280;25173;50.430;18.926;2023-07-20T12:47:19;97701.16;;;27.84;40.51
39487;BME280;25173;50.430;18.926;2023-07-20T12:50:20;97711.97;;;27.85;41.56
39487;BME280;25173;50.430;18.926;2023-07-20T12:53:20;97707.50;;;27.52;41.74
39487;BME280;25173;50.430;18.926;2023-07-20T12:56:24;97711.47;;;27.33;42.49
39487;BME280;25173;50.430;18.926;2023-07-20T12:59:25;97715.03;;;27.37;42.48
39487;BME280;25173;50.430;18.926;2023-07-20T13:02:25;97714.66;;;27.42;43.08
39487;BME280;25173;50.430;18.926;2023-07-20T13:05:26;97709.94;;;27.82;42.51
39487;BME280;25173;50.430;18.926;2023-07-20T13:08:27;97708.75;;;28.11;42.23
39487;BME280;25173;50.430;18.926;2023-07-20T13:11:27;97709.94;;;28.03;41.72
39487;BME280;25173;50.430;18.926;2023-07-20T13:14:28;97725.53;;;27.65;40.81
39487;BME280;25173;50.430;18.926;2023-07-20T13:17:29;97710.97;;;27.03;41.41
39487;BME280;25173;50.430;18.926;2023-07-20T13:20:30;97700.94;;;26.95;41.81
39487;BME280;25173;50.430;18.926;2023-07-20T13:23:30;97689.88;;;27.27;41.51
39487;BME280;25173;50.430;18.926;2023-07-20T13:26:31;97704.75;;;27.56;41.12
39487;BME280;25173;50.430;18.926;2023-07-20T13:29:31;97692.75;;;27.76;41.03
39487;BME280;25173;50.430;18.926;2023-07-20T13:32:32;97707.56;;;28.12;41.14
39487;BME280;25173;50.430;18.926;2023-07-20T13:35:33;97703.53;;;28.42;39.76
39487;BME280;25173;50.430;18.926;2023-07-20T13:38:34;97709.16;;;28.13;39.74
39487;BME280;25173;50.430;18.926;2023-07-20T13:41:34;97699.56;;;28.04;39.80
39487;BME280;25173;50.430;18.926;2023-07-20T13:44:35;97709.53;;;28.47;38.80
39487;BME280;25173;50.430;18.926;2023-07-20T13:47:36;97707.06;;;28.85;38.24
39487;BME280;25173;50.430;18.926;2023-07-20T13:50:36;97712.34;;;28.51;38.08
39487;BME280;25173;50.430;18.926;2023-07-20T13:53:37;97720.75;;;27.94;39.24
39487;BME280;25173;50.430;18.926;2023-07-20T13:56:38;97726.63;;;27.36;39.90
39487;BME280;25173;50.430;18.926;2023-07-20T13:59:38;97718.97;;;27.04;40.37
39487;BME280;25173;50.430;18.926;2023-07-20T14:02:39;97726.81;;;26.85;39.66
39487;BME280;25173;50.430;18.926;2023-07-20T14:05:39;97730.63;;;26.55;39.43
39487;BME280;25173;50.430;18.926;2023-07-20T14:08:40;97734.53;;;26.37;39.64
39487;BME280;25173;50.430;18.926;2023-07-20T14:11:41;97734.25;;;26.05;40.02
39487;BME280;25173;50.430;18.926;2023-07-20T14:14:42;97740.13;;;25.93;41.00
39487;BME280;25173;50.430;18.926;2023-07-20T14:17:42;97736.50;;;25.88;40.41
39487;BME280;25173;50.430;18.926;2023-07-20T14:20:43;97731.28;;;25.83;40.64
39487;BME280;25173;50.430;18.926;2023-07-20T14:23:48;97722.97;;;25.94;39.95
39487;BME280;25173;50.430;18.926;2023-07-20T14:26:50;97723.06;;;26.05;39.71
39487;BME280;25173;50.430;18.926;2023-07-20T14:29:50;97708.69;;;25.99;39.93
39487;BME280;25173;50.430;18.926;2023-07-20T14:32:51;97697.91;;;25.98;39.79
39487;BME280;25173;50.430;18.926;2023-07-20T14:35:52;97714.69;;;26.05;40.04
39487;BME280;25173;50.430;18.926;2023-07-20T14:38:52;97708.13;;;26.27;40.22
39487;BME280;25173;50.430;18.926;2023-07-20T14:41:53;97708.25;;;26.48;39.81
39487;BME280;25173;50.430;18.926;2023-07-20T14:44:54;97710.28;;;26.51;39.68
39487;BME280;25173;50.430;18.926;2023-07-20T14:47:55;97708.66;;;26.50;39.23
39487;BME280;25173;50.430;18.926;2023-07-20T14:50:55;97721.41;;;26.44;38.76
39487;BME280;25173;50.430;18.926;2023-07-20T14:53:56;97734.50;;;27.05;39.13
39487;BME280;25173;50.430;18.926;2023-07-20T14:57:00;97726.75;;;28.03;37.31
39487;BME280;25173;50.430;18.926;2023-07-20T15:00:00;97726.63;;;29.03;37.27
39487;BME280;25173;50.430;18.926;2023-07-20T15:03:01;97732.84;;;29.46;35.71
39487;BME280;25173;50.430;18.926;2023-07-20T15:06:02;97734.97;;;29.90;35.68
39487;BME280;25173;50.430;18.926;2023-07-20T15:09:03;97734.28;;;30.27;35.61
39487;BME280;25173;50.430;18.926;2023-07-20T15:12:04;97729.16;;;30.63;34.70
39487;BME280;25173;50.430;18.926;2023-07-20T15:15:15;97730.34;;;30.99;34.03
39487;BME280;25173;50.430;18.926;2023-07-20T15:18:15;97724.06;;;31.22;34.16
39487;BME280;25173;50.430;18.926;2023-07-20T15:21:20;97724.06;;;31.22;33.69
39487;BME280;25173;50.430;18.926;2023-07-20T15:24:46;97736.44;;;30.94;34.40
39487;BME280;25173;50.430;18.926;2023-07-20T15:27:46;97736.09;;;31.26;34.46
39487;BME280;25173;50.430;18.926;2023-07-20T15:30:47;97749.38;;;31.56;34.46
39487;BME280;25173;50.430;18.926;2023-07-20T15:33:48;97755.28;;;31.65;34.07
39487;BME280;25173;50.430;18.926;2023-07-20T15:36:48;97749.13;;;31.43;33.82
39487;BME280;25173;50.430;18.926;2023-07-20T15:39:49;97752.22;;;31.52;34.43
39487;BME280;25173;50.430;18.926;2023-07-20T15:42:50;97762.84;;;31.07;34.05
39487;BME280;25173;50.430;18.926;2023-07-20T15:46:00;97759.09;;;30.80;34.13
39487;BME280;25173;50.430;18.926;2023-07-20T15:49:01;97764.16;;;30.96;35.02
39487;BME280;25173;50.430;18.926;2023-07-20T15:52:02;97766.19;;;30.95;34.87
39487;BME280;25173;50.430;18.926;2023-07-20T15:55:03;97765.25;;;31.09;34.58
39487;BME280;25173;50.430;18.926;2023-07-20T15:58:04;97759.22;;;31.41;34.24
39487;BME280;25173;50.430;18.926;2023-07-20T16:01:05;97763.09;;;31.50;33.91